Time;durP1;ratioP1;P1;durP2;ratioP2;P2;SDS_P1;SDS_P2;PMS_P1;PMS_P2;Temp;Humidity;BMP_temperature;BMP_pressure;BME280_temperature;BME280_humidity;BME280_pressure;Samples;Min_cycle;Max_cycle;Signal;HPM_P1;HPM_P2
2022/10/05 00:01:26;;;;;;;92.25;83.32;;;;;;;15.24;76.97;99327.53;5089992;28;20016;-47
2022/10/05 00:04:14;;;;;;;102.10;86.57;;;;;;;15.51;75.30;99327.31;5090066;28;20375;-47
2022/10/05 00:06:54;;;;;;;134.25;118.88;;;;;;;15.63;74.59;99330.88;5091358;28;20036;-48
2022/10/05 00:09:20;;;;;;;516.92;457.92;;;;;;;15.68;73.82;99325.75;5091364;28;20024;-48
2022/10/05 00:11:47;;;;;;;1248.85;363.60;;;;;;;15.89;75.73;99327.19;5091577;28;20405;-47
2022/10/05 00:14:28;;;;;;;438.58;332.95;;;;;;;16.09;77.94;99324.34;5089960;28;20016;-47
2022/10/05 00:16:56;;;;;;;409.10;315.00;;;;;;;15.96;76.79;99337.75;5091062;28;20048;-47
2022/10/05 00:19:29;;;;;;;791.92;601.58;;;;;;;15.64;75.73;99329.88;5089912;28;20039;-48
2022/10/05 00:22:05;;;;;;;301.33;234.13;;;;;;;15.50;76.68;99328.38;5094616;28;20020;-47
2022/10/05 00:24:30;;;;;;;243.65;179.18;;;;;;;15.35;76.25;99332.16;5093555;28;20028;-47
2022/10/05 00:27:00;;;;;;;331.98;238.93;;;;;;;15.20;75.95;99326.34;5094762;28;20035;-47
2022/10/05 00:29:26;;;;;;;261.20;199.02;;;;;;;15.12;76.25;99331.91;5093417;28;20028;-47
2022/10/05 00:31:52;;;;;;;422.05;314.45;;;;;;;14.98;76.28;99334.63;5093611;28;20035;-47
2022/10/05 00:34:17;;;;;;;259.15;184.95;;;;;;;14.91;76.51;99331.22;5094636;28;20122;-47
2022/10/05 00:36:44;;;;;;;126.90;81.90;;;;;;;15.01;76.74;99332.56;5093539;28;20401;-47
2022/10/05 00:39:10;;;;;;;119.28;69.65;;;;;;;15.05;75.83;99339.06;5093222;28;20116;-47
2022/10/05 00:41:48;;;;;;;38.20;20.73;;;;;;;15.09;75.39;99335.78;5094366;28;20048;-47
2022/10/05 00:44:16;;;;;;;22.73;14.18;;;;;;;15.05;74.46;99337.25;5094496;28;20046;-47
2022/10/05 00:46:47;;;;;;;17.17;11.00;;;;;;;14.97;74.22;99335.66;5093486;28;20049;-47
2022/10/05 00:49:31;;;;;;;773.92;619.70;;;;;;;14.92;74.57;99340.75;5093171;28;20101;-47
2022/10/05 00:52:04;;;;;;;1284.45;644.95;;;;;;;15.25;75.49;99334.47;5093005;28;20165;-47
2022/10/05 00:54:52;;;;;;;653.40;411.20;;;;;;;15.72;74.30;99334.91;5094287;28;20039;-48
2022/10/05 00:57:34;;;;;;;416.05;305.02;;;;;;;15.87;72.98;99326.63;5094223;28;20032;-47
2022/10/05 01:00:12;;;;;;;146.00;110.63;;;;;;;15.82;72.34;99329.13;5094221;28;20046;-48
2022/10/05 01:02:41;;;;;;;64.45;42.75;;;;;;;15.98;72.32;99322.44;5094417;28;20401;-47
2022/10/05 01:05:22;;;;;;;27.75;16.73;;;;;;;16.14;70.97;99326.38;5094059;28;20023;-48
2022/10/05 01:08:15;;;;;;;29.15;16.95;;;;;;;16.11;70.74;99329.44;5094116;28;20115;-47
2022/10/05 01:11:09;;;;;;;14.73;6.05;;;;;;;16.21;69.62;99326.28;5094059;28;20028;-47
2022/10/05 01:13:48;;;;;;;39.60;15.82;;;;;;;16.08;69.16;99336.00;5092720;28;20027;-47
2022/10/05 01:16:26;;;;;;;25.38;10.75;;;;;;;15.85;69.39;99328.66;5093664;28;20148;-47
2022/10/05 01:18:52;;;;;;;17.23;8.65;;;;;;;15.90;69.87;99320.09;5093910;28;20024;-47
2022/10/05 01:21:23;;;;;;;22.58;11.90;;;;;;;15.91;69.36;99319.06;5093655;28;20043;-48
2022/10/05 01:24:16;;;;;;;42.15;14.27;;;;;;;15.96;68.90;99327.16;5092380;28;20024;-48
2022/10/05 01:27:12;;;;;;;29.30;12.13;;;;;;;15.71;69.13;99321.84;5092450;28;20039;-47
2022/10/05 01:30:09;;;;;;;33.17;22.40;;;;;;;15.44;69.34;99327.38;5093692;28;20020;-48
2022/10/05 01:32:49;;;;;;;71.57;58.58;;;;;;;15.18;69.93;99323.13;5092163;28;20035;-47
2022/10/05 01:35:33;;;;;;;78.90;65.18;;;;;;;15.05;70.28;99328.47;5092216;28;20031;-47
2022/10/05 01:38:11;;;;;;;117.25;98.53;;;;;;;14.84;70.04;99321.72;5093545;28;20440;-47
2022/10/05 01:40:46;;;;;;;115.20;96.47;;;;;;;14.77;71.84;99325.19;5093638;28;20099;-48
2022/10/05 01:43:14;;;;;;;252.30;211.55;;;;;;;15.04;73.95;99324.22;5091975;28;20093;-47
2022/10/05 01:46:01;;;;;;;130.73;108.53;;;;;;;15.19;75.02;99324.72;5093277;28;20020;-48
2022/10/05 01:48:45;;;;;;;187.77;160.73;;;;;;;15.28;75.96;99323.44;5093555;28;20050;-47
2022/10/05 01:51:17;;;;;;;68.55;57.28;;;;;;;15.23;76.31;99323.28;5093195;28;20027;-48
2022/10/05 01:54:09;;;;;;;180.30;154.90;;;;;;;15.15;76.24;99313.78;5091911;28;20031;-48
2022/10/05 01:57:01;;;;;;;44.80;35.15;;;;;;;14.92;74.85;99310.88;5093136;28;20031;-47
2022/10/05 01:59:57;;;;;;;55.88;46.83;;;;;;;14.75;75.21;99315.88;5091751;28;20032;-48
2022/10/05 02:02:24;;;;;;;779.63;534.00;;;;;;;14.99;75.70;99311.66;5092951;28;20440;-47
2022/10/05 02:04:56;;;;;;;284.27;150.20;;;;;;;15.14;74.14;99309.50;5092921;28;20389;-48
2022/10/05 02:07:28;;;;;;;67.47;38.70;;;;;;;14.98;74.15;99300.25;5092925;28;20425;-48
2022/10/05 02:10:01;;;;;;;15.10;10.68;;;;;;;14.83;73.70;99305.06;5091808;28;20020;-48
2022/10/05 02:12:31;;;;;;;21.88;12.32;;;;;;;14.59;74.04;99301.31;5092834;28;20051;-48
2022/10/05 02:15:07;;;;;;;16.25;10.50;;;;;;;14.82;74.55;99299.97;5092535;28;20371;-48
2022/10/05 02:17:46;;;;;;;21.48;9.70;;;;;;;15.01;73.59;99306.13;5092736;28;20032;-48
2022/10/05 02:20:21;;;;;;;21.83;10.23;;;;;;;15.00;72.80;99302.69;5092831;28;20046;-47
2022/10/05 02:22:52;;;;;;;26.30;9.30;;;;;;;14.86;72.90;99296.69;5092765;28;20032;-47
2022/10/05 02:25:27;;;;;;;13.65;8.45;;;;;;;14.77;71.93;99298.78;5092565;28;20303;-47
2022/10/05 02:28:03;;;;;;;12.68;7.15;;;;;;;14.58;72.11;99302.31;5092596;28;20402;-47
2022/10/05 02:30:32;;;;;;;17.38;9.68;;;;;;;14.43;72.58;99301.75;5091167;28;20028;-47
2022/10/05 02:33:03;;;;;;;10.68;5.78;;;;;;;14.45;72.92;99292.63;5092341;28;20114;-47
2022/10/05 02:35:29;;;;;;;17.45;10.80;;;;;;;14.56;72.69;99291.16;5091405;28;20065;-48
2022/10/05 02:38:19;;;;;;;9.73;5.93;;;;;;;14.58;72.18;99295.22;5092367;28;20085;-48
2022/10/05 02:41:17;;;;;;;9.43;6.05;;;;;;;14.51;71.93;99291.78;5090908;28;20101;-47
2022/10/05 02:43:53;;;;;;;11.82;6.00;;;;;;;14.52;72.35;99296.03;5090636;28;20433;-47
2022/10/05 02:46:44;;;;;;;7.78;3.80;;;;;;;14.54;72.28;99291.34;5092271;28;20055;-48
2022/10/05 02:49:18;;;;;;;8.60;4.20;;;;;;;14.55;71.79;99294.81;5090875;28;20097;-48
2022/10/05 02:51:57;;;;;;;7.88;5.10;;;;;;;14.43;71.48;99292.00;5092207;28;20027;-48
2022/10/05 02:55:03;;;;;;;16.42;4.15;;;;;;;14.31;72.80;99291.88;5092112;28;20038;-47
2022/10/05 02:57:42;;;;;;;;;;;;;;;14.47;72.31;99292.41;5091265;28;20051;-47
2022/10/05 03:00:10;;;;;;;6.78;4.00;;;;;;;14.47;71.88;99298.50;5090686;28;19958;-48
2022/10/05 03:02:45;;;;;;;6.85;3.55;;;;;;;14.42;71.83;99297.50;5092282;28;20024;-48
2022/10/05 03:05:43;;;;;;;9.95;4.32;;;;;;;14.21;72.05;99301.25;5090586;28;20031;-48
2022/10/05 03:08:30;;;;;;;22.88;14.18;;;;;;;14.01;71.94;99303.94;5090932;28;20032;-47
2022/10/05 03:11:09;;;;;;;61.90;44.08;;;;;;;14.03;73.04;99305.34;5091922;28;20075;-47
2022/10/05 03:14:03;;;;;;;25.95;17.08;;;;;;;14.11;72.62;99297.22;5090901;28;20063;-47
2022/10/05 03:16:37;;;;;;;69.97;45.30;;;;;;;14.23;72.64;99301.84;5091625;28;20050;-48
2022/10/05 03:19:30;;;;;;;17.88;11.93;;;;;;;14.24;72.11;99306.09;5091852;28;20075;-48
2022/10/05 03:22:00;;;;;;;54.08;31.52;;;;;;;14.11;72.04;99310.41;5091975;28;20036;-47
2022/10/05 03:24:42;;;;;;;39.40;23.17;;;;;;;13.86;72.25;99302.34;5090540;28;20066;-47
2022/10/05 03:27:40;;;;;;;16.30;7.63;;;;;;;13.79;72.39;99301.56;5091748;28;20066;-47
2022/10/05 03:30:16;;;;;;;15.20;9.07;;;;;;;13.47;73.00;99301.38;5091773;28;20393;-48
2022/10/05 03:33:08;;;;;;;11.02;5.20;;;;;;;13.36;73.39;99296.72;5092013;28;20379;-47
2022/10/05 03:35:59;;;;;;;9.90;5.97;;;;;;;13.54;74.13;99301.38;5090475;28;20452;-48
2022/10/05 03:38:45;;;;;;;9.95;5.10;;;;;;;13.57;74.07;99307.06;5091764;28;20131;-48
2022/10/05 03:41:40;;;;;;;9.93;4.75;;;;;;;13.64;73.23;99299.13;5090513;28;20032;-48
2022/10/05 03:44:21;;;;;;;10.52;5.30;;;;;;;13.71;73.58;99302.56;5090593;28;20105;-48
2022/10/05 03:47:06;;;;;;;5.70;4.47;;;;;;;13.99;73.54;99297.03;5090629;28;20028;-48
2022/10/05 03:49:50;;;;;;;11.30;4.85;;;;;;;14.17;72.62;99293.75;5091635;28;20036;-47
2022/10/05 03:52:41;;;;;;;13.02;5.47;;;;;;;14.27;72.76;99297.78;5091575;28;20024;-48
2022/10/05 03:55:16;;;;;;;6.93;3.70;;;;;;;14.46;71.54;99296.06;5092299;28;20035;-47
2022/10/05 03:57:44;;;;;;;18.93;7.63;;;;;;;14.41;71.42;99301.16;5094148;28;20084;-48
2022/10/05 04:00:24;;;;;;;12.65;8.48;;;;;;;14.43;71.20;99297.31;5095301;28;20266;-48
2022/10/05 04:02:50;;;;;;;60.53;45.38;;;;;;;14.46;71.22;99299.50;5094099;28;20086;-48
2022/10/05 04:05:26;;;;;;;162.30;124.03;;;;;;;14.54;71.10;99295.81;5094035;28;20048;-48
2022/10/05 04:08:21;;;;;;;165.80;115.25;;;;;;;14.64;71.26;99298.84;5093921;28;20047;-48
2022/10/05 04:10:54;;;;;;;96.78;59.85;;;;;;;14.60;70.02;99305.56;5071158;28;20111;-48
2022/10/05 04:13:37;;;;;;;94.22;63.13;;;;;;;14.29;70.23;99299.19;5095170;28;20027;-47
2022/10/05 04:16:09;;;;;;;31.38;19.40;;;;;;;13.99;70.59;99306.78;5093556;28;20054;-47
2022/10/05 04:18:40;;;;;;;135.07;80.70;;;;;;;13.68;71.49;99316.19;5095358;28;20028;-47
2022/10/05 04:21:17;;;;;;;128.20;75.68;;;;;;;13.45;72.23;99307.88;5093914;28;20119;-48
2022/10/05 04:23:46;;;;;;;167.05;98.45;;;;;;;13.26;73.02;99299.75;5093726;28;20020;-47
2022/10/05 04:26:23;;;;;;;199.63;111.15;;;;;;;13.29;73.68;99295.88;5094880;28;20028;-48
2022/10/05 04:29:06;;;;;;;136.55;86.10;;;;;;;13.37;74.34;99295.72;5094924;28;20106;-47
2022/10/05 04:32:04;;;;;;;180.43;113.57;;;;;;;13.54;74.34;99304.84;5093808;28;20053;-48
2022/10/05 04:34:47;;;;;;;89.97;47.85;;;;;;;13.59;73.39;99299.75;5094785;28;20016;-48
2022/10/05 04:37:41;;;;;;;133.27;82.28;;;;;;;13.38;73.18;99297.31;5094687;28;20036;-48
2022/10/05 04:40:24;;;;;;;369.05;241.45;;;;;;;13.43;74.59;99308.09;5094666;28;20020;-47
2022/10/05 04:43:01;;;;;;;48.17;31.00;;;;;;;13.58;73.65;99302.59;5094587;28;20036;-48
2022/10/05 04:46:04;;;;;;;78.88;48.35;;;;;;;13.50;73.63;99298.34;5094525;28;20039;-47
2022/10/05 04:48:51;;;;;;;40.88;24.40;;;;;;;13.71;74.22;99299.94;5094488;28;20051;-47
2022/10/05 04:51:46;;;;;;;273.30;172.60;;;;;;;13.95;74.04;99292.38;5093039;28;20020;-47
2022/10/05 04:54:27;;;;;;;188.23;117.43;;;;;;;14.29;75.48;99293.09;5094404;28;20032;-47
2022/10/05 04:57:02;;;;;;;28.05;14.48;;;;;;;14.55;74.63;99295.63;5093351;28;20024;-48
2022/10/05 04:59:40;;;;;;;172.02;107.32;;;;;;;14.67;74.05;99289.69;5092970;28;20619;-48
2022/10/05 05:02:50;;;;;;;135.65;48.67;;;;;;;14.79;74.20;99290.66;5094166;28;20119;-47
2022/10/05 05:05:30;;;;;;;113.40;69.78;;;;;;;14.89;73.50;99290.97;5094081;28;20021;-48
2022/10/05 05:08:08;;;;;;;143.88;23.10;;;;;;;15.00;74.35;99289.47;5093711;28;20108;-47
2022/10/05 05:10:52;;;;;;;18.23;8.35;;;;;;;14.94;74.79;99285.84;5092772;28;20102;-48
2022/10/05 05:13:42;;;;;;;37.95;17.55;;;;;;;14.82;76.15;99294.69;5093084;28;20491;-47
2022/10/05 05:16:32;;;;;;;26.35;13.10;;;;;;;14.76;75.23;99296.34;5093751;28;20047;-48
2022/10/05 05:19:00;;;;;;;21.25;5.38;;;;;;;14.73;75.53;99297.59;5092575;28;20128;-48
2022/10/05 05:21:39;;;;;;;462.55;30.17;;;;;;;14.71;76.93;99302.28;5093729;28;20065;-48
2022/10/05 05:24:33;;;;;;;26.30;5.55;;;;;;;14.76;77.16;99298.97;5092488;28;20063;-48
2022/10/05 05:27:23;;;;;;;7.85;2.80;;;;;;;14.85;77.12;99303.00;5092382;28;20477;-48
2022/10/05 05:30:17;;;;;;;8.95;3.67;;;;;;;14.95;77.54;99300.69;5092316;28;20504;-47
2022/10/05 05:32:54;;;;;;;246.55;17.30;;;;;;;14.99;77.34;99303.72;5093551;28;20524;-47
2022/10/05 05:35:39;;;;;;;15.25;6.88;;;;;;;15.06;77.85;99308.97;5092258;28;20447;-47
2022/10/05 05:38:17;;;;;;;19.63;7.03;;;;;;;15.09;76.99;99319.94;5093501;28;20023;-48
2022/10/05 05:41:27;;;;;;;33.45;17.67;;;;;;;15.32;75.79;99324.63;5092059;28;20028;-47
2022/10/05 05:43:59;;;;;;;13.88;7.43;;;;;;;15.54;74.19;99326.91;5079648;28;20044;-48
2022/10/05 05:46:29;;;;;;;43.53;25.50;;;;;;;15.70;73.77;99330.84;5093648;28;20040;-47
2022/10/05 05:48:56;;;;;;;33.28;16.33;;;;;;;15.94;72.54;99330.03;5093610;28;20486;-48
2022/10/05 05:51:36;;;;;;;13.73;7.72;;;;;;;16.10;70.80;99320.69;5093129;28;20028;-47
2022/10/05 05:54:19;;;;;;;27.80;10.35;;;;;;;16.04;70.54;99332.16;5093249;28;20028;-47
2022/10/05 05:57:15;;;;;;;13.23;7.53;;;;;;;16.44;69.35;99331.72;5093212;28;20077;-48
2022/10/05 06:00:02;;;;;;;10.48;5.10;;;;;;;16.75;67.06;99328.03;5085069;28;20561;-47
2022/10/05 06:02:53;;;;;;;12.38;6.13;;;;;;;16.82;65.65;99329.81;5091562;28;20455;-48
2022/10/05 06:05:22;;;;;;;8.38;3.42;;;;;;;16.76;65.42;99329.66;5077288;28;20036;-47
2022/10/05 06:07:50;;;;;;;5.65;3.05;;;;;;;16.72;65.33;99338.28;5092882;28;20107;-48
2022/10/05 06:10:46;;;;;;;10.40;3.47;;;;;;;16.77;65.45;99341.06;5092784;28;20501;-47
2022/10/05 06:13:32;;;;;;;8.25;3.45;;;;;;;16.91;65.00;99347.84;5091840;28;20028;-48
2022/10/05 06:16:22;;;;;;;7.85;3.50;;;;;;;17.14;63.96;99348.94;5091528;28;20521;-48
2022/10/05 06:18:56;;;;;;;4.35;3.03;;;;;;;17.36;63.60;99343.91;5091911;28;20512;-47
2022/10/05 06:21:26;;;;;;;8.02;2.92;;;;;;;17.70;62.64;99342.34;5092628;28;20401;-46
2022/10/05 06:24:14;;;;;;;6.20;3.22;;;;;;;17.99;61.61;99347.81;5091316;28;20517;-46
2022/10/05 06:26:58;;;;;;;8.38;3.30;;;;;;;17.66;61.66;99354.44;5092558;28;20024;-46
2022/10/05 06:29:31;;;;;;;7.85;3.08;;;;;;;17.10;63.21;99356.56;5091506;28;20067;-45
2022/10/05 06:32:33;;;;;;;5.47;2.80;;;;;;;16.73;64.89;99366.41;5092571;28;20103;-46
2022/10/05 06:35:05;;;;;;;6.22;3.50;;;;;;;16.48;66.09;99369.16;5092053;28;20089;-45
2022/10/05 06:37:52;;;;;;;4.68;3.53;;;;;;;16.42;66.84;99364.75;5092332;28;20024;-45
2022/10/05 06:40:40;;;;;;;10.30;3.33;;;;;;;16.47;66.88;99364.91;5091023;28;20118;-46
2022/10/05 06:44:00;;;;;;;13.50;3.78;;;;;;;16.52;67.59;99373.81;5091060;28;20028;-45
2022/10/05 06:46:31;;;;;;;10.55;3.72;;;;;;;16.82;67.27;99372.22;5029739;28;20033;-46
2022/10/05 06:49:14;;;;;;;7.65;3.00;;;;;;;17.19;67.35;99359.69;5013415;28;20030;-45
2022/10/05 06:52:04;;;;;;;5.95;2.53;;;;;;;18.05;65.56;99372.59;5029855;28;20025;-46
2022/10/05 06:54:47;;;;;;;9.68;4.25;;;;;;;19.13;62.93;99368.38;5013194;28;20056;-46
2022/10/05 06:57:29;;;;;;;9.15;2.60;;;;;;;19.91;59.70;99371.25;5029788;28;20033;-46
2022/10/05 07:00:03;;;;;;;10.50;3.05;;;;;;;20.55;58.17;99367.28;5029686;28;20048;-46
2022/10/05 07:02:55;;;;;;;10.13;3.87;;;;;;;21.19;56.21;99366.66;5029627;28;20034;-46
2022/10/05 07:05:38;;;;;;;8.73;2.55;;;;;;;21.61;53.41;99365.97;5024988;28;20037;-46
2022/10/05 07:08:17;;;;;;;8.15;3.60;;;;;;;22.02;52.67;99366.22;5029642;28;20436;-46
2022/10/05 07:11:05;;;;;;;8.00;3.00;;;;;;;22.54;51.80;99359.25;5029628;28;20037;-46
2022/10/05 07:13:48;;;;;;;8.15;2.95;;;;;;;22.94;50.38;99361.25;5012987;28;20034;-46
2022/10/05 07:16:34;;;;;;;7.30;2.42;;;;;;;23.21;49.43;99365.59;5029211;28;20503;-46
2022/10/05 07:19:37;;;;;;;9.85;2.78;;;;;;;23.44;49.19;99366.94;5029642;28;20041;-46
2022/10/05 07:22:25;;;;;;;7.07;4.05;;;;;;;23.58;48.62;99361.81;5091721;28;20095;-46
2022/10/05 07:25:01;;;;;;;13.60;3.28;;;;;;;23.38;49.11;99378.72;5092038;28;20401;-46
2022/10/05 07:27:58;;;;;;;11.60;2.13;;;;;;;23.33;48.21;99376.03;5090549;28;20035;-46
2022/10/05 07:30:24;;;;;;;11.77;2.88;;;;;;;22.96;49.14;99389.59;5094575;28;20028;-46
2022/10/05 07:33:25;;;;;;;5.00;1.98;;;;;;;22.58;50.76;99381.75;5094583;28;20444;-46
2022/10/05 07:39:04;;;;;;;4.22;2.17;;;;;;;22.67;50.72;99388.19;5096143;28;20042;-46
2022/10/05 07:41:52;;;;;;;6.68;2.40;;;;;;;22.22;51.85;99394.94;5095716;28;20561;-46
2022/10/05 07:44:24;;;;;;;31.83;4.13;;;;;;;22.06;54.12;99398.59;5095679;28;20111;-46
2022/10/05 07:46:59;;;;;;;4.97;2.20;;;;;;;21.88;53.65;99407.81;5095649;28;20027;-46
2022/10/05 07:49:34;;;;;;;15.93;2.90;;;;;;;21.67;55.29;99404.19;5094422;28;20025;-46
2022/10/05 07:52:05;;;;;;;12.43;3.50;;;;;;;21.76;54.55;99404.53;5095604;28;20032;-46
2022/10/05 07:54:37;;;;;;;10.40;2.78;;;;;;;22.31;53.24;99416.66;5077887;28;20028;-46
2022/10/05 07:57:05;;;;;;;7.95;1.95;;;;;;;22.29;53.56;99418.78;5095433;28;20043;-46
2022/10/05 07:59:49;;;;;;;8.93;2.53;;;;;;;22.56;53.00;99418.66;5095384;28;20055;-46
2022/10/05 08:02:33;;;;;;;9.07;2.90;;;;;;;23.03;51.07;99417.75;5095274;28;20048;-46
2022/10/05 08:05:30;;;;;;;5.75;2.45;;;;;;;23.24;52.35;99417.78;5095324;28;20024;-46
2022/10/05 08:08:11;;;;;;;10.80;4.88;;;;;;;23.59;49.92;99425.06;5095315;28;20035;-46
2022/10/05 08:10:45;;;;;;;7.78;2.88;;;;;;;23.70;49.23;99421.31;5093885;28;20089;-46
2022/10/05 08:13:33;;;;;;;17.15;3.53;;;;;;;23.83;49.81;99437.97;5094097;28;20484;-46
2022/10/05 08:16:03;;;;;;;14.77;4.65;;;;;;;23.96;50.07;99432.03;5094709;28;20056;-46
2022/10/05 08:18:53;;;;;;;7.30;3.03;;;;;;;24.28;48.97;99433.59;5093786;28;20063;-46
2022/10/05 08:21:25;;;;;;;7.57;3.40;;;;;;;24.49;47.11;99445.09;5094973;28;20047;-46
2022/10/05 08:23:57;;;;;;;6.80;2.70;;;;;;;24.90;47.06;99442.25;5094969;28;20023;-46
2022/10/05 08:26:59;;;;;;;8.90;2.97;;;;;;;26.67;44.28;99444.84;5095123;28;20028;-46
2022/10/05 08:29:41;;;;;;;11.15;3.97;;;;;;;27.04;41.30;99441.38;5032404;28;20029;-46
2022/10/05 08:32:44;;;;;;;17.27;5.00;;;;;;;27.27;40.05;99449.72;5032425;28;20051;-46
2022/10/05 08:35:32;;;;;;;12.95;3.47;;;;;;;27.02;40.64;99445.47;5025924;28;20053;-46
2022/10/05 08:38:03;;;;;;;9.30;4.03;;;;;;;26.88;40.65;99456.16;5032269;28;20048;-46
2022/10/05 08:40:38;;;;;;;9.57;4.28;;;;;;;26.84;41.10;99453.25;5031923;28;20025;-46
2022/10/05 08:43:16;;;;;;;10.18;4.00;;;;;;;26.87;40.26;99455.34;5032070;28;20040;-46
2022/10/05 08:46:13;;;;;;;8.63;4.57;;;;;;;26.65;41.37;99455.09;5015661;28;20025;-46
2022/10/05 08:48:57;;;;;;;26.08;15.05;;;;;;;26.43;40.98;99451.00;5032186;28;20072;-46
2022/10/05 08:52:00;;;;;;;10.25;6.18;;;;;;;25.48;42.53;99465.84;5015514;28;20525;-46
2022/10/05 08:54:28;;;;;;;9.27;5.28;;;;;;;24.16;45.79;99484.03;5032098;28;20025;-46
2022/10/05 08:56:54;;;;;;;10.68;5.90;;;;;;;24.04;46.78;99471.72;5032043;28;20128;-46
2022/10/05 08:59:35;;;;;;;8.90;5.75;;;;;;;24.35;46.21;99470.84;5031934;28;20108;-46
2022/10/05 09:02:42;;;;;;;10.52;5.85;;;;;;;24.66;45.91;99466.25;5031881;28;20084;-45
2022/10/05 09:05:46;;;;;;;13.80;6.82;;;;;;;24.81;45.24;99468.06;5094051;28;20024;-45
2022/10/05 09:08:33;;;;;;;9.80;4.97;;;;;;;23.86;47.42;99475.75;5094205;28;20078;-45
2022/10/05 09:11:25;;;;;;;12.38;6.40;;;;;;;23.19;48.89;99469.47;5094550;28;20074;-45
2022/10/05 09:14:15;;;;;;;10.63;5.78;;;;;;;23.32;49.10;99468.16;5094322;28;20040;-45
2022/10/05 09:16:54;;;;;;;16.50;12.70;;;;;;;23.80;48.42;99470.66;5093678;28;20048;-46
2022/10/05 09:19:42;;;;;;;27.25;21.05;;;;;;;24.71;47.00;99464.34;5092903;28;20024;-45
2022/10/05 09:22:34;;;;;;;28.08;23.02;;;;;;;26.52;43.72;99461.94;5093807;28;20266;-46
2022/10/05 09:25:32;;;;;;;65.82;52.00;;;;;;;27.14;41.79;99461.19;5093854;28;20017;-46
2022/10/05 09:28:19;;;;;;;151.02;93.43;;;;;;;27.91;39.98;99460.88;5014689;28;20069;-46
2022/10/05 09:30:57;;;;;;;347.95;198.10;;;;;;;28.81;37.69;99458.63;5031545;28;20436;-46
2022/10/05 09:33:53;;;;;;;156.77;91.72;;;;;;;28.40;38.34;99454.03;5014628;28;20033;-46
2022/10/05 09:37:12;;;;;;;39.83;26.83;;;;;;;28.50;38.19;99455.75;5031249;28;20040;-46
2022/10/05 09:39:55;;;;;;;30.10;22.98;;;;;;;27.90;38.42;99459.25;4991706;28;20042;-46
2022/10/05 09:42:47;;;;;;;23.02;17.70;;;;;;;27.82;39.61;99462.63;4991612;28;20115;-46
2022/10/05 09:45:25;;;;;;;16.55;10.57;;;;;;;27.48;39.58;99452.91;4975099;28;20042;-46
2022/10/05 09:47:54;;;;;;;49.67;43.80;;;;;;;27.15;42.27;99454.72;4991655;28;20038;-46
2022/10/05 09:50:39;;;;;;;17.38;12.18;;;;;;;26.85;41.05;99452.16;4991415;28;20038;-46
2022/10/05 09:53:10;;;;;;;10.40;7.47;;;;;;;26.53;41.81;99460.06;4990422;28;20133;-46
2022/10/05 09:55:54;;;;;;;14.25;7.70;;;;;;;26.62;42.66;99458.38;4991472;28;20452;-46
2022/10/05 09:58:38;;;;;;;13.07;8.07;;;;;;;26.62;41.28;99456.50;4991537;28;20031;-46
2022/10/05 10:01:07;;;;;;;17.23;8.52;;;;;;;26.68;44.23;99460.72;4991244;28;20034;-46
2022/10/05 10:03:51;;;;;;;29.27;15.68;;;;;;;27.18;42.55;99454.13;5013617;28;20048;-46
2022/10/05 10:06:36;;;;;;;45.85;35.75;;;;;;;27.85;40.02;99451.25;5050525;28;20037;-46
2022/10/05 10:09:30;;;;;;;14.98;8.30;;;;;;;27.72;40.26;99452.00;5050579;28;20037;-46
2022/10/05 10:12:02;;;;;;;15.83;6.77;;;;;;;27.48;40.53;99466.38;5015292;28;20059;-46
2022/10/05 10:15:06;;;;;;;12.20;6.53;;;;;;;27.59;41.38;99450.88;5106696;28;20035;-46
2022/10/05 10:18:03;;;;;;;11.82;6.35;;;;;;;27.93;40.03;99453.28;5091781;28;20495;-46
2022/10/05 10:20:56;;;;;;;15.13;7.18;;;;;;;28.36;39.66;99457.63;5092592;28;20032;-46
2022/10/05 10:23:57;;;;;;;16.48;6.80;;;;;;;28.67;38.15;99452.44;5092701;28;20036;-46
2022/10/05 10:26:35;;;;;;;12.45;6.63;;;;;;;28.47;39.87;99450.91;5070141;28;20505;-46
2022/10/05 10:29:04;;;;;;;14.30;9.20;;;;;;;27.98;40.30;99452.38;5092562;28;20032;-46
2022/10/05 10:32:00;;;;;;;15.70;10.02;;;;;;;28.12;40.34;99463.22;5092512;28;20467;-46
2022/10/05 10:34:56;;;;;;;18.25;8.48;;;;;;;27.73;39.54;99456.28;5092519;28;20023;-46
2022/10/05 10:38:01;;;;;;;21.13;10.80;;;;;;;27.66;39.59;99452.06;5092392;28;20016;-46
2022/10/05 10:40:51;;;;;;;62.47;42.40;;;;;;;28.06;38.84;99455.19;5092477;28;20024;-46
2022/10/05 10:43:49;;;;;;;19.08;11.88;;;;;;;27.44;39.04;99458.09;5091099;28;20035;-46
2022/10/05 10:46:38;;;;;;;10.40;8.38;;;;;;;27.08;40.58;99455.06;5090962;28;20596;-46
2022/10/05 10:49:38;;;;;;;11.65;6.13;;;;;;;27.32;39.77;99468.50;5091012;28;20020;-46
2022/10/05 10:52:23;;;;;;;11.98;6.63;;;;;;;27.48;39.82;99450.22;5090956;28;20039;-46
2022/10/05 10:54:52;;;;;;;8.18;6.10;;;;;;;27.80;39.22;99446.72;5090910;28;20055;-46
2022/10/05 10:57:18;;;;;;;9.48;6.05;;;;;;;28.08;38.75;99458.41;5091062;28;20028;-46
2022/10/05 11:00:05;;;;;;;11.57;7.20;;;;;;;27.96;39.81;99447.28;5092177;28;20024;-46
2022/10/05 11:02:52;;;;;;;11.82;6.15;;;;;;;28.12;38.69;99442.41;5091898;28;20059;-46
2022/10/05 11:06:06;;;;;;;10.15;5.82;;;;;;;27.53;38.93;99436.66;5091606;28;20505;-46
2022/10/05 11:08:51;;;;;;;10.18;5.95;;;;;;;26.70;41.24;99436.19;5029498;28;20415;-46
2022/10/05 11:11:54;;;;;;;16.27;6.32;;;;;;;26.66;41.08;99430.59;5013290;28;20032;-46
2022/10/05 11:14:58;;;;;;;10.05;6.53;;;;;;;26.52;41.72;99451.16;5029620;28;20061;-46
2022/10/05 11:17:48;;;;;;;10.95;6.13;;;;;;;26.27;41.99;99430.75;5007926;28;20041;-46
2022/10/05 11:20:49;;;;;;;13.63;6.97;;;;;;;26.52;42.35;99437.72;5029493;28;20041;-46
2022/10/05 11:23:53;;;;;;;10.90;6.38;;;;;;;27.21;41.37;99424.72;5029529;28;20025;-46
2022/10/05 11:26:34;;;;;;;13.52;6.40;;;;;;;28.02;39.26;99418.31;4989950;28;20511;-46
2022/10/05 11:29:30;;;;;;;11.60;6.20;;;;;;;27.95;38.58;99415.19;4990168;28;20129;-46
2022/10/05 11:32:24;;;;;;;14.10;5.10;;;;;;;27.81;38.64;99393.56;4989987;28;20604;-46
2022/10/05 11:35:23;;;;;;;8.02;5.82;;;;;;;27.51;39.66;99411.88;4990103;28;20093;-46
2022/10/05 11:38:08;;;;;;;10.80;6.13;;;;;;;27.34;40.08;99407.03;4990087;28;20054;-46
2022/10/05 11:40:52;;;;;;;;;;;;;;;27.48;40.17;99391.69;4990418;28;20132;-46
2022/10/05 11:44:11;;;;;;;12.15;5.78;;;;;;;28.03;39.99;99398.31;4990035;28;19913;-46
2022/10/05 11:46:58;;;;;;;10.65;4.93;;;;;;;28.88;37.49;99388.78;5067091;28;20032;-46
2022/10/05 11:49:39;;;;;;;6.57;4.53;;;;;;;29.48;36.92;99386.88;5069192;28;20079;-47
2022/10/05 11:52:17;;;;;;;9.27;5.32;;;;;;;29.74;36.55;99384.34;5069167;28;20079;-47
2022/10/05 11:55:06;;;;;;;7.85;4.85;;;;;;;29.73;35.71;99390.84;5052236;28;20545;-46
2022/10/05 11:57:37;;;;;;;8.30;4.53;;;;;;;29.48;36.18;99382.25;5052701;28;20379;-46
2022/10/05 12:00:15;;;;;;;6.72;4.78;;;;;;;29.56;35.95;99393.41;5068969;28;20041;-46
2022/10/05 12:02:43;;;;;;;9.82;4.07;;;;;;;29.35;35.63;99387.72;5087025;28;20432;-46
2022/10/05 12:05:34;;;;;;;7.57;4.15;;;;;;;28.80;36.54;99376.00;5090079;28;20480;-46
2022/10/05 12:08:48;;;;;;;10.13;4.57;;;;;;;28.35;38.14;99381.22;5069938;28;20101;-46
2022/10/05 12:11:44;;;;;;;11.07;4.35;;;;;;;28.21;37.04;99372.34;5057763;28;20028;-46
2022/10/05 12:14:27;;;;;;;;;;;;;;;27.86;38.35;99366.50;5091834;28;20036;-46
2022/10/05 12:17:03;;;;;;;8.80;4.30;;;;;;;27.85;38.77;99378.41;5091464;28;19947;-46
2022/10/05 12:19:43;;;;;;;8.88;4.68;;;;;;;27.81;38.62;99367.41;5095125;28;20732;-46
2022/10/05 12:22:30;;;;;;;9.93;4.35;;;;;;;27.84;38.49;99360.59;5093680;28;20028;-46
2022/10/05 12:25:00;;;;;;;5.50;3.22;;;;;;;27.69;38.56;99362.50;5095078;28;20024;-46
2022/10/05 12:27:33;;;;;;;7.85;3.70;;;;;;;27.89;38.05;99361.34;5094951;28;20028;-46
2022/10/05 12:30:12;;;;;;;13.45;3.90;;;;;;;27.78;38.70;99356.41;5093790;28;20031;-46
2022/10/05 12:32:40;;;;;;;5.50;3.20;;;;;;;27.77;38.49;99360.19;5094896;28;20036;-46
2022/10/05 12:35:21;;;;;;;10.75;3.85;;;;;;;27.83;38.78;99359.81;5094767;28;20394;-46
2022/10/05 12:37:57;;;;;;;9.15;4.10;;;;;;;28.12;38.43;99347.97;5095051;28;20024;-46